Detall de PIREP

Printer-friendly versionPDF version

[2014/05/27 08:17:00]
Flight IATA:CT3109
Pilot Number:042
Company ICAO:CAT
Aircraft Type:F100/A
PAX:49
Aircraft Registration:PFJ
Departing Airport: LEZG
Destination Airport: LIEA
Alternate Airport:LIEO
Online: VATSIM
Route:LEZG PONEN UN870 BCN UN725 ORKUM/M080F200 UM603 ELSAG LIEA
Flight Level:F300
No Slew and time accel
No pause
Crash detect
Detect pilot in Cockpit between each 30 and 45 minutes
08:17 Zero fuel Weight: 81826 Lbs, Fuel Weight: 22691 Lbs
08:17 VATSIM:LEZG 270800Z 31008KT 270V340 9999 FEW060 SCT089 14/06 Q1021
08:17 VATSIM:LIEA 270750Z 28009KT 240V340 9999 FEW025 19/10 Q1019
08:20 Parking Brakes off
08:24 Take-off
08:24 Take off Weight: 104154 Lbs
08:24 Wind: 337º @ 008 Knots Heading: 301º
08:24 POS N41º 39´ 54´´ W001º 01´ 49´´
08:24 Gear Up: 180 Knots
08:24 Flaps:2 at 180 Knots
08:25 Flaps:1 at 176 Knots
08:25 Flaps:0 at 182 Knots
08:39 Wind:316º@012 Knots Heading: 091º Ground Speed: 446 Knots Altitude 27089 ft
08:42 TOC
08:42 Fuel Weight: 19929 Lb
08:54 Wind:314º@011 Knots Heading: 102º Ground Speed: 474 Knots Altitude 30196 ft
09:09 Wind:299º@015 Knots Heading: 095º Ground Speed: 477 Knots Altitude 30147 ft
09:13 TOD
09:13 Fuel Weight: 17043 Lb
09:24 Wind:271º@031 Knots Heading: 082º Ground Speed: 371 Knots Altitude 16929 ft
09:31 Flaps:1 at 219 Knots
09:32 Gear Down: 196 Knots
09:32 Flaps:2 at 196 Knots
09:32 Flaps:3 at 196 Knots
09:32 Flaps:2 at 196 Knots
09:32 Flaps:3 at 193 Knots
09:35 TouchDown:Rate -93 ft/min Speed: 151 Knots
09:36 VATSIM:LIEA 270850Z 29009KT 250V330 9999 FEW025 19/10 Q1019
09:36 Land
09:36 Wind:270º@010 Knots
09:36 Heading: 207º
09:36 Flight Duration: 01:12
09:36 Landing Weight: 97679 Lbs
09:36 POS N40º 37´ 46´´ E008º 17´ 21´´
09:37 Parking brakes on
09:37 Block to Block Duration: 01:17
09:37 Final Fuel: 15769 Lbls
09:37 Spent Fuel: 6922 Lbls
09:37 Flight Length: 476 NM
09:37 TOD Land Length: 124 NM

Exportar CSV

Powered by Drupal - Modified by Danger4k